Forside
METAR-TAF:

METAR-TAF

Lufthavne :

Rahim Yar Khan, Pakistan

Breddekreds: 28-23-02N, længdekreds: 70-16-47E, højde: 83 m

METAR: fraværende

Tid: 12:41 (07:41 UTC)

Vejrudsigter

Denne rapport blev lavet for 3 timer og 56 minutter siden, kl. 03:45 UTC
Foreløbig gælder fra 29 på 06 UTC til 29 på 24 UTC
Vind 5 kt fra sydvest
Sigt: 5000 m
Nogle få skyer i en højde af 12000 ft
røg

TAF: OPRK 290345Z 2906/2924 23005KT 5000 FU FEW120 TX27/2910Z

Vejrobservationer og prognoser fra mere end 4000 lufthavne (METAR og TAF).

De gule og røde prikker repræsenterer de meteorologiske stationer.

Flyt musen over at se navnet på stationen.

Så klik over at se vejr observationer og prognoser.

At skifte det kort: Klik på de grønne knapper med et sort kors for at zoome ind; på den grønne knap med en bindestreg for at zoome ud; eller på de grønne pile for tilstødende kort.


METAR-TAF: